Time;durP1;ratioP1;P1;durP2;ratioP2;P2;SDS_P1;SDS_P2;PMS_P1;PMS_P2;Temp;Humidity;BMP_temperature;BMP_pressure;BME280_temperature;BME280_humidity;BME280_pressure;Samples;Min_cycle;Max_cycle;Signal;HPM_P1;HPM_P2
2023/07/19 00:01:10;;;;;;;2.70;1.60;;;;;;;19.21;55.42;100006.85;105980;1253;61342;-73
2023/07/19 00:03:37;;;;;;;5.60;1.60;;;;;;;19.08;55.56;100007.02;106051;1259;61202;-71
2023/07/19 00:06:05;;;;;;;3.00;1.60;;;;;;;18.98;55.64;100003.76;105899;1251;66014;-72
2023/07/19 00:08:32;;;;;;;4.10;1.80;;;;;;;18.92;55.84;100001.16;105929;1257;61333;-80
2023/07/19 00:11:01;;;;;;;4.00;1.70;;;;;;;18.85;56.17;100002.88;105692;1251;63839;-72
2023/07/19 00:13:28;;;;;;;1.90;1.50;;;;;;;18.76;56.28;99999.83;105778;1255;61215;-72
2023/07/19 00:15:56;;;;;;;2.20;1.50;;;;;;;18.68;56.58;99997.36;105698;1256;61248;-72
2023/07/19 00:18:23;;;;;;;2.30;1.50;;;;;;;18.61;57.04;100000.52;106047;1256;66040;-72
2023/07/19 00:20:50;;;;;;;4.60;1.70;;;;;;;18.55;57.14;100003.92;105930;1256;61253;-71
2023/07/19 00:23:17;;;;;;;2.70;1.60;;;;;;;18.48;57.46;100005.59;105969;1251;64059;-73
2023/07/19 00:25:45;;;;;;;3.10;1.70;;;;;;;18.42;57.65;100000.50;105944;1253;61254;-71
2023/07/19 00:28:13;;;;;;;4.10;1.80;;;;;;;18.36;58.10;99996.27;105758;1256;61298;-71
2023/07/19 00:30:40;;;;;;;5.20;1.60;;;;;;;18.32;58.23;99997.62;105906;1258;66106;-72
2023/07/19 00:33:08;;;;;;;4.40;1.80;;;;;;;18.25;58.35;100001.95;105619;1260;61275;-72
2023/07/19 00:35:43;;;;;;;2.40;1.60;;;;;;;18.19;58.59;100001.27;105791;1256;64575;-72
2023/07/19 00:38:14;;;;;;;2.90;1.90;;;;;;;18.11;58.75;100003.44;106018;1256;61269;-73
2023/07/19 00:40:41;;;;;;;2.20;1.50;;;;;;;18.06;59.01;100009.60;106300;1251;62859;-70
2023/07/19 00:43:12;;;;;;;6.60;1.90;;;;;;;17.99;59.34;100012.66;105916;1251;65885;-72
2023/07/19 00:45:54;;;;;;;2.90;1.90;;;;;;;17.94;59.43;100016.09;106015;1251;61343;-72
2023/07/19 00:48:22;;;;;;;5.20;2.00;;;;;;;17.85;59.50;100018.73;105729;1256;64027;-72
2023/07/19 00:50:51;;;;;;;2.70;1.70;;;;;;;17.76;59.89;100017.79;105674;1251;61245;-72
2023/07/19 00:53:18;;;;;;;5.40;2.00;;;;;;;17.69;60.14;100014.38;106032;1256;61202;-71
2023/07/19 00:55:48;;;;;;;2.50;1.60;;;;;;;17.63;60.15;100017.00;106140;1258;64600;-73
2023/07/19 00:58:16;;;;;;;3.60;1.50;;;;;;;17.59;60.13;100020.88;105771;1257;61406;-73
2023/07/19 01:00:42;;;;;;;4.60;2.20;;;;;;;17.53;60.17;100022.77;106174;1251;64039;-72
2023/07/19 01:03:09;;;;;;;4.80;2.30;;;;;;;17.48;60.65;100023.58;105820;1256;61267;-70
2023/07/19 01:05:37;;;;;;;3.60;2.10;;;;;;;17.46;60.77;100020.20;105956;1250;61196;-72
2023/07/19 01:08:05;;;;;;;6.90;2.20;;;;;;;17.44;60.87;100020.21;105637;1257;65875;-73
2023/07/19 01:10:32;;;;;;;4.60;2.30;;;;;;;17.43;60.95;100019.11;105889;1256;61238;-73
2023/07/19 01:13:05;;;;;;;5.80;2.40;;;;;;;17.42;61.14;100016.52;105971;1253;64146;-71
2023/07/19 01:15:32;;;;;;;4.90;2.20;;;;;;;17.42;61.53;100009.37;105494;1254;61211;-72
2023/07/19 01:17:59;;;;;;;3.00;2.00;;;;;;;17.42;61.47;100000.86;105741;1251;61344;-72
2023/07/19 01:20:26;;;;;;;3.40;2.10;;;;;;;17.40;61.50;99996.30;105911;1255;65973;-77
2023/07/19 01:22:55;;;;;;;3.80;1.90;;;;;;;17.35;61.57;99993.52;105747;1267;61313;-72
2023/07/19 01:25:23;;;;;;;5.40;2.00;;;;;;;17.29;61.71;99996.73;105801;1257;64105;-73
2023/07/19 01:27:50;;;;;;;2.80;2.10;;;;;;;17.21;61.92;99994.98;105765;1256;61502;-72
2023/07/19 01:30:17;;;;;;;3.60;2.10;;;;;;;17.14;62.21;99991.80;105721;1250;61246;-74
2023/07/19 01:32:45;;;;;;;3.90;2.20;;;;;;;17.07;62.15;99998.21;105809;1263;65973;-73
2023/07/19 01:35:12;;;;;;;4.10;2.30;;;;;;;17.03;62.26;99997.70;105873;1254;61327;-72
2023/07/19 01:37:41;;;;;;;4.10;2.10;;;;;;;16.99;62.42;99996.55;106063;1257;64013;-72
2023/07/19 01:40:11;;;;;;;3.50;2.10;;;;;;;16.92;62.32;100000.52;105994;1251;62061;-71
2023/07/19 01:42:39;;;;;;;2.90;2.40;;;;;;;16.87;62.53;100004.09;106419;1251;61218;-72
2023/07/19 01:45:07;;;;;;;4.20;2.50;;;;;;;16.82;62.44;100008.02;105622;1257;66086;-71
2023/07/19 01:47:37;;;;;;;5.80;2.30;;;;;;;16.79;62.41;100011.92;105558;1251;61283;-71
2023/07/19 01:50:04;;;;;;;5.70;2.10;;;;;;;16.75;62.60;100011.46;105905;1251;64255;-71
2023/07/19 01:52:33;;;;;;;3.30;2.20;;;;;;;16.73;62.88;100011.21;105746;1251;61358;-73
2023/07/19 01:55:00;;;;;;;4.30;2.20;;;;;;;16.71;63.04;100008.92;105695;1251;61292;-72
2023/07/19 01:57:27;;;;;;;3.10;2.20;;;;;;;16.70;63.39;100013.85;106092;1257;66030;-71
2023/07/19 01:59:56;;;;;;;3.40;2.50;;;;;;;16.67;63.67;100014.11;105949;1251;61334;-71
2023/07/19 02:02:23;;;;;;;6.50;2.50;;;;;;;16.65;63.83;100016.82;105677;1254;64111;-73
2023/07/19 02:04:50;;;;;;;4.80;2.50;;;;;;;16.65;64.12;100015.72;105879;1251;61360;-73
2023/07/19 02:07:17;;;;;;;5.60;2.60;;;;;;;16.66;64.18;100014.32;106178;1251;61238;-72
2023/07/19 02:09:44;;;;;;;4.90;2.20;;;;;;;16.67;64.37;100007.77;106132;1253;64749;-70
2023/07/19 02:12:11;;;;;;;4.60;2.50;;;;;;;16.66;64.28;100005.05;106059;1251;61314;-72
2023/07/19 02:14:38;;;;;;;3.90;2.60;;;;;;;16.65;64.30;100006.39;105620;1257;64468;-71
2023/07/19 02:17:05;;;;;;;4.90;3.00;;;;;;;16.66;64.54;100003.48;105750;1254;61273;-73
2023/07/19 02:19:32;;;;;;;3.80;2.80;;;;;;;16.66;64.68;100005.52;106198;1251;61257;-73
2023/07/19 02:21:59;;;;;;;4.00;3.00;;;;;;;16.66;64.71;100010.11;106041;1253;64831;-72
2023/07/19 02:24:26;;;;;;;4.60;3.00;;;;;;;16.68;64.54;100011.37;105454;1251;61231;-73
2023/07/19 02:26:53;;;;;;;3.60;2.70;;;;;;;16.72;64.45;100012.01;105644;1258;64217;-74
2023/07/19 02:29:20;;;;;;;3.30;3.00;;;;;;;16.76;64.72;100012.27;106177;1251;61167;-71
2023/07/19 02:31:47;;;;;;;5.90;3.00;;;;;;;16.79;64.81;100012.98;105794;1251;61353;-72
2023/07/19 02:34:18;;;;;;;4.20;2.90;;;;;;;16.81;64.61;100010.29;105671;1254;65966;-72
2023/07/19 02:36:45;;;;;;;5.00;2.90;;;;;;;16.82;64.50;100006.95;105676;1251;61369;-71
2023/07/19 02:39:14;;;;;;;5.50;3.30;;;;;;;16.82;64.31;100001.79;105994;1254;64052;-72
2023/07/19 02:41:41;;;;;;;4.90;2.80;;;;;;;16.82;64.16;99999.15;105505;1251;61285;-75
2023/07/19 02:44:08;;;;;;;5.10;3.00;;;;;;;16.82;64.17;99998.45;105766;1251;61298;-72
2023/07/19 02:46:37;;;;;;;5.20;3.30;;;;;;;16.81;64.21;100000.29;105835;1256;65917;-71
2023/07/19 02:49:04;;;;;;;6.40;3.40;;;;;;;16.81;64.38;99999.48;105910;1251;61359;-71
2023/07/19 02:51:31;;;;;;;6.30;3.30;;;;;;;16.80;64.28;100001.20;105832;1251;63775;-71
2023/07/19 02:53:58;;;;;;;7.40;3.50;;;;;;;16.79;64.28;100002.55;105980;1251;61673;-72
2023/07/19 02:56:25;;;;;;;7.00;3.60;;;;;;;16.78;64.22;100008.31;105653;1251;61219;-72
2023/07/19 02:58:52;;;;;;;5.00;3.40;;;;;;;16.77;64.21;100006.95;106073;1254;65926;-71
2023/07/19 03:01:19;;;;;;;8.10;3.60;;;;;;;16.77;64.32;100001.33;105626;1257;61340;-71
2023/07/19 03:03:48;;;;;;;4.90;3.50;;;;;;;16.76;64.32;100002.42;106018;1251;62657;-74
2023/07/19 03:06:16;;;;;;;4.60;3.40;;;;;;;16.76;64.17;100004.22;105558;1257;61334;-72
2023/07/19 03:08:44;;;;;;;6.10;3.30;;;;;;;16.77;64.03;100003.55;105715;1251;61316;-72
2023/07/19 03:11:11;;;;;;;5.00;3.40;;;;;;;16.80;64.06;100004.29;105541;1256;65892;-71
2023/07/19 03:13:39;;;;;;;6.90;3.60;;;;;;;16.84;64.11;100006.57;105492;1252;61320;-72
2023/07/19 03:16:06;;;;;;;7.00;3.40;;;;;;;16.88;64.11;100007.34;105825;1254;63695;-71
2023/07/19 03:18:34;;;;;;;4.50;3.40;;;;;;;16.93;64.12;100005.09;105712;1251;61246;-72
2023/07/19 03:21:03;;;;;;;5.40;3.20;;;;;;;16.97;64.07;100001.56;105987;1253;61282;-71
2023/07/19 03:23:33;;;;;;;7.30;3.40;;;;;;;17.01;63.96;100003.39;106018;1254;66142;-72
2023/07/19 03:26:00;;;;;;;7.00;3.90;;;;;;;17.06;63.99;99999.12;105663;1256;61275;-72
2023/07/19 03:28:28;;;;;;;6.70;3.80;;;;;;;17.09;63.88;99999.63;105848;1251;64026;-72
2023/07/19 03:30:57;;;;;;;8.20;3.70;;;;;;;17.14;63.77;100003.90;105770;1256;61334;-72
2023/07/19 03:33:24;;;;;;;9.60;3.70;;;;;;;17.18;63.70;100007.05;105578;1250;61270;-73
2023/07/19 03:35:52;;;;;;;6.80;3.70;;;;;;;17.21;63.63;100002.48;105784;1257;66061;-72
2023/07/19 03:38:19;;;;;;;8.30;3.70;;;;;;;17.24;63.71;100000.89;105918;1251;61336;-72
2023/07/19 03:40:47;;;;;;;9.00;5.10;;;;;;;17.26;63.71;99999.34;105923;1251;63828;-73
2023/07/19 03:43:15;;;;;;;8.20;5.60;;;;;;;17.27;63.76;99993.84;106341;1254;61211;-72
2023/07/19 03:45:42;;;;;;;6.10;4.80;;;;;;;17.30;63.96;99992.20;105839;1251;61386;-72
2023/07/19 03:48:10;;;;;;;9.30;4.30;;;;;;;17.32;64.27;99991.92;105379;1260;66181;-71
2023/07/19 03:50:37;;;;;;;4.70;3.60;;;;;;;17.34;64.23;99992.96;105780;1251;61427;-72
2023/07/19 03:53:04;;;;;;;8.70;3.60;;;;;;;17.34;63.99;99993.92;105706;1255;64042;-73
2023/07/19 03:55:32;;;;;;;4.70;3.70;;;;;;;17.36;63.85;99999.11;105663;1251;61307;-71
2023/07/19 03:58:00;;;;;;;5.70;4.00;;;;;;;17.39;63.88;100000.23;105938;1251;61250;-71
2023/07/19 04:00:27;;;;;;;6.90;4.00;;;;;;;17.42;63.83;100001.90;105755;1254;66196;-72
2023/07/19 04:02:54;;;;;;;6.60;4.10;;;;;;;17.46;63.45;100003.13;105674;1251;61338;-71
2023/07/19 04:05:21;;;;;;;8.90;4.70;;;;;;;17.50;63.33;100003.52;105352;1260;64045;-77
2023/07/19 04:07:50;;;;;;;5.80;4.40;;;;;;;17.56;63.26;100001.80;105609;1253;270458;-72
2023/07/19 04:10:17;;;;;;;6.80;4.80;;;;;;;17.63;63.21;100007.20;105920;1251;61232;-71
2023/07/19 04:12:44;;;;;;;7.30;4.60;;;;;;;17.71;63.27;100011.08;105786;1256;66061;-72
2023/07/19 04:15:12;;;;;;;9.20;4.60;;;;;;;17.80;63.15;100010.29;105870;1250;61267;-72
2023/07/19 04:17:40;;;;;;;6.80;4.30;;;;;;;17.89;63.03;100006.95;105797;1251;64040;-71
2023/07/19 04:20:08;;;;;;;7.00;3.90;;;;;;;17.98;62.90;100002.65;105917;1251;61375;-72
2023/07/19 04:22:36;;;;;;;5.40;3.80;;;;;;;18.08;62.84;100000.44;105673;1251;61317;-72
2023/07/19 04:25:04;;;;;;;9.00;3.60;;;;;;;18.18;62.53;100001.02;105504;1261;66022;-74
2023/07/19 04:27:31;;;;;;;4.90;3.20;;;;;;;18.27;62.22;100002.41;105947;1251;61273;-71
2023/07/19 04:29:59;;;;;;;6.60;3.20;;;;;;;18.36;61.96;99999.91;105408;1260;62947;-73
2023/07/19 04:32:26;;;;;;;6.60;3.50;;;;;;;18.45;61.43;99997.27;105836;1251;61216;-73
2023/07/19 04:34:54;;;;;;;4.40;3.20;;;;;;;18.55;61.30;99995.65;105769;1259;61944;-72
2023/07/19 04:37:21;;;;;;;3.70;2.90;;;;;;;18.66;61.26;99995.50;105534;1260;66025;-71
2023/07/19 04:39:50;;;;;;;5.30;3.00;;;;;;;18.76;60.86;99995.16;106128;1250;61241;-73
2023/07/19 04:42:18;;;;;;;7.60;2.90;;;;;;;18.85;60.38;99995.80;106008;1252;65102;-72
2023/07/19 04:44:46;;;;;;;5.40;3.00;;;;;;;18.96;60.41;99991.40;105937;1251;61308;-73
2023/07/19 04:47:13;;;;;;;8.10;2.90;;;;;;;19.05;59.97;99991.33;105787;1251;61101;-73
2023/07/19 04:49:40;;;;;;;8.30;3.00;;;;;;;19.14;59.70;99990.95;105550;1259;66840;-75
2023/07/19 04:52:07;;;;;;;4.20;2.60;;;;;;;19.24;59.70;99992.55;105972;1251;61655;-72
2023/07/19 04:54:34;;;;;;;4.50;2.50;;;;;;;19.34;59.26;99987.56;106193;1254;64220;-73
2023/07/19 04:57:01;;;;;;;9.10;2.70;;;;;;;19.43;58.59;99985.63;105669;1253;61236;-72
2023/07/19 04:59:28;;;;;;;3.60;2.50;;;;;;;19.52;58.19;99989.88;105839;1251;61269;-72
2023/07/19 05:01:55;;;;;;;4.90;2.80;;;;;;;19.59;57.68;99985.79;105693;1254;66073;-71
2023/07/19 05:04:22;;;;;;;4.60;2.80;;;;;;;19.66;57.51;99982.53;106035;1253;61247;-72
2023/07/19 05:06:52;;;;;;;4.80;2.60;;;;;;;19.75;57.59;99982.21;105888;1253;64022;-71
2023/07/19 05:09:20;;;;;;;3.50;2.50;;;;;;;19.84;56.95;99984.67;105711;1251;61293;-72
2023/07/19 05:11:48;;;;;;;3.20;2.30;;;;;;;19.93;56.82;99985.51;105781;1250;61288;-71
2023/07/19 05:14:14;;;;;;;4.60;2.40;;;;;;;20.02;56.61;99985.30;106036;1256;65878;-72
2023/07/19 05:16:42;;;;;;;3.60;2.30;;;;;;;20.10;56.08;99986.98;105744;1250;61249;-72
2023/07/19 05:19:11;;;;;;;4.10;2.00;;;;;;;20.18;55.43;99993.21;105725;1253;63966;-71
2023/07/19 05:21:38;;;;;;;3.80;1.90;;;;;;;20.27;54.20;99994.23;105682;1253;61321;-68
2023/07/19 05:24:05;;;;;;;3.60;1.80;;;;;;;20.36;53.21;99993.89;105801;1251;61353;-69
2023/07/19 05:26:32;;;;;;;4.70;2.00;;;;;;;20.44;53.00;99990.14;105741;1253;66050;-80
2023/07/19 05:28:59;;;;;;;10.80;4.20;;;;;;;20.52;53.09;99987.77;106109;1251;60931;-71
2023/07/19 05:31:27;;;;;;;2.90;1.70;;;;;;;20.60;52.76;99986.66;105769;1254;63804;-71
2023/07/19 05:33:55;;;;;;;2.80;1.60;;;;;;;20.67;52.31;99983.79;105666;1251;61251;-73
2023/07/19 05:36:22;;;;;;;8.70;2.40;;;;;;;20.76;51.77;99981.89;105786;1251;61350;-71
2023/07/19 05:38:49;;;;;;;5.00;1.80;;;;;;;20.84;51.07;99983.31;106147;1256;66017;-72
2023/07/19 05:41:16;;;;;;;4.10;1.40;;;;;;;20.92;50.43;99983.64;106056;1251;61334;-70
2023/07/19 05:43:44;;;;;;;3.20;1.60;;;;;;;20.99;50.40;99980.67;105764;1256;63951;-65
2023/07/19 05:46:16;;;;;;;3.40;1.50;;;;;;;21.07;50.81;99975.70;105740;1251;61552;-66
2023/07/19 05:48:43;;;;;;;3.70;1.40;;;;;;;21.15;50.70;99977.69;105775;1251;61318;-66
2023/07/19 05:51:11;;;;;;;6.60;1.70;;;;;;;21.23;50.14;99977.96;105584;1256;65874;-65
2023/07/19 05:53:38;;;;;;;4.10;1.90;;;;;;;21.30;49.47;99978.34;105629;1250;61333;-65
2023/07/19 05:56:05;;;;;;;32.10;4.10;;;;;;;21.35;48.80;99979.23;105829;1251;63979;-66
2023/07/19 05:58:33;;;;;;;3.40;1.50;;;;;;;21.40;48.40;99975.36;106467;1251;61130;-71
2023/07/19 06:00:59;;;;;;;5.60;1.60;;;;;;;21.46;49.16;99970.79;105957;1251;61295;-70
2023/07/19 06:03:27;;;;;;;4.00;1.60;;;;;;;21.53;49.14;99971.70;105922;1254;66147;-66
2023/07/19 06:05:54;;;;;;;11.00;1.50;;;;;;;21.60;48.27;99969.68;105782;1256;61237;-67
2023/07/19 06:08:22;;;;;;;4.40;1.40;;;;;;;21.66;48.28;99969.61;105820;1251;64054;-66
2023/07/19 06:10:52;;;;;;;5.00;1.40;;;;;;;21.73;48.47;99967.89;105883;1261;61334;-66
2023/07/19 06:13:20;;;;;;;4.00;1.40;;;;;;;21.81;48.18;99969.43;106047;1250;61293;-67
2023/07/19 06:15:48;;;;;;;2.90;1.60;;;;;;;21.88;48.35;99970.18;105665;1257;66081;-66
2023/07/19 06:18:15;;;;;;;4.20;1.40;;;;;;;21.95;48.07;99967.09;105772;1250;61292;-67
2023/07/19 06:20:42;;;;;;;5.80;1.50;;;;;;;22.02;47.89;99970.33;105660;1251;64018;-66
2023/07/19 06:23:09;;;;;;;3.40;1.50;;;;;;;22.11;47.94;99965.42;105819;1251;61345;-65
2023/07/19 06:25:37;;;;;;;3.10;1.40;;;;;;;22.18;47.65;99968.20;105836;1251;61231;-72
2023/07/19 06:28:04;;;;;;;2.70;1.30;;;;;;;22.22;46.90;99966.92;105804;1252;66077;-65
2023/07/19 06:30:31;;;;;;;4.30;1.40;;;;;;;22.25;46.94;99963.61;105929;1250;61346;-68
2023/07/19 06:32:58;;;;;;;6.80;1.30;;;;;;;22.31;46.51;99963.98;106006;1250;64049;-67
2023/07/19 06:35:26;;;;;;;4.10;1.40;;;;;;;22.35;46.25;99959.96;105812;1257;61155;-66
2023/07/19 06:37:53;;;;;;;4.60;1.50;;;;;;;22.40;45.95;99957.20;105814;1250;61318;-64
2023/07/19 06:40:20;;;;;;;2.20;1.50;;;;;;;22.46;46.11;99955.45;105782;1254;66004;-64
2023/07/19 06:42:48;;;;;;;5.40;1.60;;;;;;;22.55;46.44;99958.11;105732;1251;61135;-65
2023/07/19 06:45:15;;;;;;;4.50;1.50;;;;;;;22.65;46.33;99953.67;106091;1251;64070;-65
2023/07/19 06:47:42;;;;;;;3.00;1.40;;;;;;;22.74;45.51;99952.81;105823;1251;61238;-65
2023/07/19 06:50:09;;;;;;;3.00;1.60;;;;;;;22.81;45.47;99951.34;106079;1251;62447;-65
2023/07/19 06:52:37;;;;;;;5.00;1.30;;;;;;;22.88;45.26;99954.55;105937;1254;65680;-66
2023/07/19 06:55:05;;;;;;;6.40;1.60;;;;;;;22.93;44.93;99950.43;105870;1251;61270;-67
2023/07/19 06:57:33;;;;;;;2.40;1.20;;;;;;;22.97;45.07;99948.34;105801;1251;63908;-68
2023/07/19 07:00:03;;;;;;;4.80;1.40;;;;;;;23.02;44.88;99945.71;105792;1254;61301;-67
2023/07/19 07:02:31;;;;;;;7.10;1.20;;;;;;;23.06;44.93;99948.02;105853;1251;61292;-66
2023/07/19 07:04:58;;;;;;;3.00;1.30;;;;;;;23.13;44.51;99952.30;105831;1256;65995;-66
2023/07/19 07:07:25;;;;;;;5.10;1.50;;;;;;;23.16;44.33;99949.84;105856;1250;61298;-67
2023/07/19 07:09:54;;;;;;;4.00;1.40;;;;;;;23.21;44.35;99948.66;105848;1251;64006;-68
2023/07/19 07:12:21;;;;;;;1.60;1.10;;;;;;;23.29;44.59;99945.17;105621;1251;61305;-66
2023/07/19 07:14:49;;;;;;;2.10;1.10;;;;;;;23.37;42.81;99939.59;105904;1251;61225;-67
2023/07/19 07:17:17;;;;;;;2.40;1.10;;;;;;;23.42;41.32;99939.67;106044;1253;65816;-68
2023/07/19 07:19:45;;;;;;;4.90;1.20;;;;;;;23.50;41.75;99942.45;105838;1251;61220;-67
2023/07/19 07:22:12;;;;;;;3.20;1.20;;;;;;;23.54;42.37;99943.52;106108;1251;63883;-64
2023/07/19 07:24:40;;;;;;;4.00;0.90;;;;;;;23.60;42.05;99946.73;105984;1251;61120;-68
2023/07/19 07:27:08;;;;;;;2.10;1.00;;;;;;;23.70;41.43;99939.79;105557;1250;61222;-67
2023/07/19 07:29:36;;;;;;;1.70;1.00;;;;;;;23.79;40.59;99937.98;105767;1251;65859;-65
2023/07/19 07:32:04;;;;;;;2.00;1.00;;;;;;;23.85;40.55;99936.08;105572;1251;61304;-67
2023/07/19 07:34:31;;;;;;;2.50;1.00;;;;;;;23.93;40.70;99937.59;105779;1251;64048;-65
2023/07/19 07:36:58;;;;;;;1.70;1.10;;;;;;;24.02;40.64;99933.95;105769;1251;61358;-69
2023/07/19 07:39:25;;;;;;;2.10;1.10;;;;;;;24.11;40.44;99934.95;105552;1254;61267;-65
2023/07/19 07:41:52;;;;;;;4.80;1.70;;;;;;;24.16;39.37;99934.91;105441;1253;64936;-69
2023/07/19 07:44:19;;;;;;;2.10;1.10;;;;;;;24.17;38.82;99938.67;105807;1250;62738;-67
2023/07/19 07:46:47;;;;;;;4.20;1.10;;;;;;;24.17;38.79;99935.90;105969;1250;63994;-70
2023/07/19 07:49:14;;;;;;;2.70;1.10;;;;;;;24.21;39.76;99937.23;105985;1250;61154;-70
2023/07/19 07:51:42;;;;;;;2.00;1.30;;;;;;;24.32;40.33;99937.15;105554;1253;61213;-70
2023/07/19 07:54:09;;;;;;;4.10;1.10;;;;;;;24.44;41.36;99939.16;105836;1254;67761;-69
2023/07/19 07:56:35;;;;;;;2.90;1.40;;;;;;;24.49;41.97;99937.70;105646;1256;61357;-70
2023/07/19 07:59:03;;;;;;;2.70;1.30;;;;;;;24.49;42.30;99934.33;106043;1250;64668;-68
2023/07/19 08:01:30;;;;;;;2.80;1.40;;;;;;;24.49;42.67;99928.67;106173;1251;61558;-70
2023/07/19 08:03:58;;;;;;;2.40;1.50;;;;;;;24.54;43.17;99924.07;106656;1256;61226;-68
2023/07/19 08:06:25;;;;;;;3.40;1.50;;;;;;;24.64;42.18;99920.96;105604;1256;66068;-69
2023/07/19 08:08:52;;;;;;;4.50;1.20;;;;;;;24.78;40.87;99927.16;105720;1251;61324;-70
2023/07/19 08:11:21;;;;;;;4.20;1.40;;;;;;;24.90;39.06;99927.73;106357;1251;63928;-70
2023/07/19 08:13:53;;;;;;;3.90;1.40;;;;;;;24.87;38.10;99926.40;106169;1251;61255;-65
2023/07/19 08:16:20;;;;;;;3.00;1.90;;;;;;;24.79;38.17;99921.68;106064;1251;62353;-67
2023/07/19 08:18:48;;;;;;;3.20;1.30;;;;;;;24.77;37.83;99911.89;105952;1250;66045;-67
2023/07/19 08:21:15;;;;;;;4.00;1.40;;;;;;;24.87;37.63;99906.83;105547;1251;61315;-69
2023/07/19 08:23:56;;;;;;;5.40;1.40;;;;;;;25.03;37.39;99909.23;106099;1251;64079;-69
2023/07/19 08:26:23;;;;;;;4.30;1.30;;;;;;;25.18;37.42;99900.61;106386;1250;61304;-71
2023/07/19 08:28:53;;;;;;;4.80;1.40;;;;;;;25.29;37.91;99899.02;106147;1250;61179;-68
2023/07/19 08:31:23;;;;;;;3.80;1.50;;;;;;;25.43;37.67;99897.51;106543;1250;66091;-70
2023/07/19 08:33:52;;;;;;;2.10;1.20;;;;;;;25.50;37.39;99898.23;105779;1251;61332;-70
2023/07/19 08:36:20;;;;;;;3.20;1.60;;;;;;;25.49;36.57;99898.09;105713;1251;63906;-70
2023/07/19 08:38:47;;;;;;;4.70;1.80;;;;;;;25.43;36.99;99901.29;105823;1251;61308;-71
2023/07/19 08:41:17;;;;;;;2.40;1.50;;;;;;;25.44;37.39;99903.79;105649;1250;61323;-69
2023/07/19 08:43:44;;;;;;;6.20;1.50;;;;;;;25.51;37.33;99899.33;106088;1251;66089;-69
2023/07/19 08:46:14;;;;;;;3.40;1.30;;;;;;;25.54;37.19;99897.08;105785;1251;61232;-68
2023/07/19 08:48:49;;;;;;;3.30;1.40;;;;;;;25.54;36.99;99894.59;105432;1252;63917;-70
2023/07/19 08:51:17;;;;;;;2.80;1.60;;;;;;;25.49;36.82;99894.33;105348;1252;61221;-70
2023/07/19 08:53:45;;;;;;;2.40;1.30;;;;;;;25.45;37.45;99894.02;106134;1250;61260;-69
2023/07/19 08:56:11;;;;;;;3.50;1.30;;;;;;;25.48;37.92;99894.85;106012;1256;66040;-71
2023/07/19 08:58:39;;;;;;;4.60;1.50;;;;;;;25.51;38.13;99888.98;106112;1251;61244;-71
2023/07/19 09:01:07;;;;;;;5.00;1.40;;;;;;;25.60;38.58;99880.27;106363;1257;63894;-68
2023/07/19 09:03:34;;;;;;;8.90;1.50;;;;;;;25.82;38.88;99874.28;105627;1250;61310;-69
2023/07/19 09:06:01;;;;;;;5.90;1.60;;;;;;;26.08;38.25;99872.72;105620;1251;61254;-71
2023/07/19 09:08:39;;;;;;;3.80;1.30;;;;;;;26.23;36.89;99874.00;105486;1257;66034;-70
2023/07/19 09:11:07;;;;;;;3.30;1.60;;;;;;;26.27;37.38;99871.06;105598;1250;61769;-68
2023/07/19 09:13:37;;;;;;;4.60;1.50;;;;;;;26.21;38.87;99883.86;105882;1251;64021;-69
2023/07/19 09:16:08;;;;;;;4.00;1.60;;;;;;;26.14;39.17;99884.89;106024;1251;61250;-69
2023/07/19 09:18:36;;;;;;;4.70;1.40;;;;;;;26.06;38.60;99886.48;106330;1251;61484;-71
2023/07/19 09:21:04;;;;;;;2.40;1.50;;;;;;;25.98;38.77;99879.27;105861;1259;65866;-72
2023/07/19 09:23:36;;;;;;;3.90;1.50;;;;;;;25.92;40.45;99881.27;106196;1254;61356;-68
2023/07/19 09:26:04;;;;;;;4.70;1.60;;;;;;;25.85;40.68;99880.31;106443;1253;63992;-70
2023/07/19 09:28:34;;;;;;;3.60;1.50;;;;;;;25.79;40.37;99877.67;105792;1251;61240;-70
2023/07/19 09:31:01;;;;;;;5.80;1.90;;;;;;;25.73;40.43;99875.02;105600;1251;61209;-69
2023/07/19 09:33:48;;;;;;;2.10;1.30;;;;;;;25.67;40.80;99873.66;106542;1250;66348;-70
2023/07/19 09:36:18;;;;;;;5.20;1.30;;;;;;;25.64;40.00;99868.71;105863;1251;61285;-70
2023/07/19 09:38:46;;;;;;;4.20;1.50;;;;;;;25.60;40.51;99870.79;105565;1251;64092;-68
2023/07/19 09:41:13;;;;;;;4.20;1.60;;;;;;;25.63;41.56;99867.08;105429;1253;61268;-68
2023/07/19 09:43:40;;;;;;;3.80;1.80;;;;;;;25.69;41.60;99859.39;105730;1250;62198;-68
2023/07/19 09:46:08;;;;;;;4.90;1.50;;;;;;;25.72;40.85;99859.98;105863;1258;66001;-68
2023/07/19 09:48:35;;;;;;;4.90;1.40;;;;;;;25.73;40.89;99860.16;105766;1255;61419;-68
2023/07/19 09:51:05;;;;;;;5.80;1.60;;;;;;;25.80;40.55;99857.52;105595;1257;63998;-69
2023/07/19 09:53:37;;;;;;;2.20;1.30;;;;;;;25.96;41.90;99848.90;106169;1251;61393;-68
2023/07/19 09:56:08;;;;;;;4.20;1.60;;;;;;;26.28;42.01;99846.55;106431;1256;61225;-69
2023/07/19 09:58:35;;;;;;;3.90;1.40;;;;;;;26.63;40.71;99840.91;105652;1254;66354;-69
2023/07/19 10:01:03;;;;;;;1.50;1.10;;;;;;;26.97;39.98;99839.08;105433;1251;61407;-68
2023/07/19 10:03:32;;;;;;;2.40;1.30;;;;;;;27.33;39.61;99833.83;105954;1251;64173;-69
2023/07/19 10:05:59;;;;;;;2.00;1.20;;;;;;;27.63;39.24;99828.56;105518;1252;61277;-69
2023/07/19 10:08:28;;;;;;;3.60;1.40;;;;;;;27.84;38.32;99827.17;106224;1254;61307;-69
2023/07/19 10:11:00;;;;;;;3.30;1.30;;;;;;;27.93;37.79;99831.75;105810;1250;65997;-69
2023/07/19 10:13:31;;;;;;;5.10;2.40;;;;;;;27.86;37.19;99839.45;105916;1257;60328;-69
2023/07/19 10:15:58;;;;;;;6.50;1.60;;;;;;;27.68;36.90;99834.00;105764;1251;64052;-71
2023/07/19 10:18:29;;;;;;;2.50;1.40;;;;;;;27.32;37.04;99830.30;106229;1251;61905;-69
2023/07/19 10:21:00;;;;;;;4.30;1.50;;;;;;;26.99;37.72;99828.95;105976;1251;61315;-68
2023/07/19 10:23:34;;;;;;;3.60;1.10;;;;;;;26.80;38.44;99825.88;105606;1250;64768;-70
2023/07/19 10:26:06;;;;;;;2.30;1.40;;;;;;;26.67;38.84;99821.79;106164;1251;61237;-70
2023/07/19 10:28:33;;;;;;;4.70;1.40;;;;;;;26.71;40.17;99816.12;106261;1250;64100;-71
2023/07/19 10:31:00;;;;;;;3.10;1.30;;;;;;;26.92;40.11;99808.83;105793;1259;61208;-69
2023/07/19 10:33:48;;;;;;;3.20;1.30;;;;;;;27.25;39.33;99801.98;105875;1251;61307;-68
2023/07/19 10:36:14;;;;;;;3.20;1.30;;;;;;;27.58;38.30;99800.30;105711;1256;65929;-69
2023/07/19 10:38:42;;;;;;;3.60;1.40;;;;;;;27.89;37.40;99797.38;105950;1251;61352;-69
2023/07/19 10:41:12;;;;;;;2.60;1.40;;;;;;;28.13;37.69;99798.16;105699;1251;63974;-69
2023/07/19 10:43:39;;;;;;;3.20;1.30;;;;;;;28.39;37.88;99800.35;105773;1251;61359;-69
2023/07/19 10:46:10;;;;;;;2.40;1.30;;;;;;;28.56;36.67;99799.70;106658;1250;61248;-71
2023/07/19 10:48:38;;;;;;;3.00;1.30;;;;;;;28.57;35.61;99794.88;106303;1254;64828;-69
2023/07/19 10:51:08;;;;;;;2.00;1.20;;;;;;;28.50;36.15;99794.14;105507;1250;61270;-69
2023/07/19 10:53:44;;;;;;;5.60;1.30;;;;;;;28.39;35.91;99794.11;105852;1250;64050;-69
2023/07/19 10:56:11;;;;;;;3.10;1.30;;;;;;;28.24;36.33;99800.09;105725;1254;61218;-69
2023/07/19 10:58:39;;;;;;;3.00;1.30;;;;;;;28.06;36.19;99799.69;105836;1251;61209;-70
2023/07/19 11:01:06;;;;;;;2.70;1.40;;;;;;;27.87;36.91;99800.00;105849;1254;66002;-69
2023/07/19 11:03:33;;;;;;;3.90;1.20;;;;;;;27.74;37.72;99795.09;105915;1251;61645;-71
2023/07/19 11:06:01;;;;;;;4.70;1.40;;;;;;;27.64;37.79;99792.42;105698;1251;64100;-69
2023/07/19 11:08:29;;;;;;;4.10;1.40;;;;;;;27.55;38.11;99792.60;105941;1251;61226;-70
2023/07/19 11:10:57;;;;;;;7.90;1.60;;;;;;;27.48;38.77;99788.52;105852;1258;61258;-69
2023/07/19 11:13:25;;;;;;;3.00;1.30;;;;;;;27.49;39.09;99787.45;105769;1256;66119;-69
2023/07/19 11:15:54;;;;;;;2.20;1.20;;;;;;;27.68;38.49;99784.68;105660;1251;61323;-69
2023/07/19 11:18:40;;;;;;;2.00;1.20;;;;;;;27.91;37.02;99781.66;105642;1251;63850;-69
2023/07/19 11:21:08;;;;;;;3.70;1.30;;;;;;;28.05;36.47;99771.38;105779;1251;61203;-68
2023/07/19 11:23:41;;;;;;;1.80;1.10;;;;;;;28.05;36.07;99768.98;105704;1250;61346;-71
2023/07/19 11:26:10;;;;;;;2.70;1.40;;;;;;;28.01;36.92;99762.33;105872;1250;66088;-69